Time;durP1;ratioP1;P1;durP2;ratioP2;P2;SDS_P1;SDS_P2;PMS_P1;PMS_P2;Temp;Humidity;BMP_temperature;BMP_pressure;BME280_temperature;BME280_humidity;BME280_pressure;Samples;Min_cycle;Max_cycle;Signal;HPM_P1;HPM_P2
2023/01/28 00:00:20;;;;;;;;;;;;;;;5.15;73.13;102966.28;4987387;28;19970;-50
2023/01/28 00:02:47;;;;;;;;;;;;;;;5.16;72.87;102957.84;4994893;28;19925;-52
2023/01/28 00:05:12;;;;;;;;;;;;;;;5.20;73.26;102962.44;4978606;28;19922;-53
2023/01/28 00:07:37;;;;;;;;;;;;;;;5.20;73.13;102968.44;4973884;28;19960;-51
2023/01/28 00:10:02;;;;;;;;;;;;;;;5.17;71.25;102965.66;4976836;28;19926;-47
2023/01/28 00:12:28;;;;;;;;;;;;;;;5.09;71.78;102970.09;4981860;28;20267;-52
2023/01/28 00:14:53;;;;;;;;;;;;;;;5.06;71.66;102971.50;4972915;28;20448;-52
2023/01/28 00:17:19;;;;;;;;;;;;;;;5.02;71.69;102980.56;4966455;28;19922;-54
2023/01/28 00:19:44;;;;;;;;;;;;;;;4.99;72.07;102982.84;4974418;28;19930;-50
2023/01/28 00:22:09;;;;;;;;;;;;;;;5.01;72.29;102986.41;4971729;28;19925;-47
2023/01/28 00:24:34;;;;;;;;;;;;;;;5.03;72.53;102976.34;4979560;28;19926;-48
2023/01/28 00:27:00;;;;;;;;;;;;;;;5.06;72.87;102976.63;4969289;28;20412;-52
2023/01/28 00:29:25;;;;;;;;;;;;;;;5.10;72.77;102989.75;4971235;28;19918;-52
2023/01/28 00:31:51;;;;;;;;;;;;;;;5.10;72.79;102982.09;4970811;28;20020;-52
2023/01/28 00:34:16;;;;;;;;;;;;;;;5.10;72.92;102982.09;4979919;28;19922;-52
2023/01/28 00:36:41;;;;;;;;;;;;;;;5.10;73.12;102978.66;4971196;28;19968;-51
2023/01/28 00:39:10;;;;;;;;;;;;;;;5.10;73.05;102984.66;4974826;28;19922;-47
2023/01/28 00:41:36;;;;;;;;;;;;;;;5.11;73.26;102988.09;4981737;28;19918;-52
2023/01/28 00:44:01;;;;;;;;;;;;;;;5.13;72.88;102984.00;4972435;28;20028;-50
2023/01/28 00:46:26;;;;;;;;;;;;;;;5.14;72.64;102988.34;4982793;28;19937;-50
2023/01/28 00:48:52;;;;;;;;;;;;;;;5.11;72.81;102981.34;4981452;28;19968;-52
2023/01/28 00:51:18;;;;;;;;;;;;;;;5.12;72.91;102989.88;4992594;28;19918;-52
2023/01/28 00:53:44;;;;;;;;;;;;;;;5.11;72.36;102998.28;4999432;28;19975;-50
2023/01/28 00:56:11;;;;;;;;;;;;;;;5.10;72.64;102993.97;4983053;28;19921;-52
2023/01/28 00:58:36;;;;;;;;;;;;;;;5.08;72.03;102988.72;4970762;28;19960;-49
2023/01/28 01:01:15;;;;;;;;;;;;;;;5.02;72.02;103000.06;4974997;28;20366;-51
2023/01/28 01:03:41;;;;;;;;;;;;;;;4.96;71.69;103002.97;4977666;28;19926;-52
2023/01/28 01:06:06;;;;;;;;;;;;;;;4.96;72.37;103009.75;4971395;28;19964;-52
2023/01/28 01:08:34;;;;;;;;;;;;;;;4.99;72.79;103002.38;4975956;28;19930;-52
2023/01/28 01:11:03;;;;;;;;;;;;;;;5.03;72.55;102999.28;4983653;28;20347;-49
2023/01/28 01:13:29;;;;;;;;;;;;;;;5.03;72.31;102991.63;4974070;28;20008;-52
2023/01/28 01:16:14;;;;;;;;;;;;;;;5.03;72.53;102995.06;4971335;28;20447;-46
2023/01/28 01:18:40;;;;;;;;;;;;;;;5.03;72.72;102984.88;4974544;28;20284;-51
2023/01/28 01:21:09;;;;;;;;;;;;;;;5.05;72.47;102993.56;4977027;28;20299;-52
2023/01/28 01:23:35;;;;;;;;;;;;;;;5.01;71.88;102995.72;4975272;28;20278;-50
2023/01/28 01:26:00;;;;;;;;;;;;;;;4.99;71.98;102992.16;4967606;28;19929;-51
2023/01/28 01:28:26;;;;;;;;;;;;;;;4.93;70.97;102986.56;4969258;28;19930;-52
2023/01/28 01:30:57;;;;;;;;;;;;;;;4.90;71.64;102988.81;4982190;28;19933;-43
2023/01/28 01:33:23;;;;;;;;;;;;;;;4.92;71.86;102984.78;4970146;28;20029;-52
2023/01/28 01:35:52;;;;;;;;;;;;;;;4.94;72.46;102979.03;4987034;28;20008;-50
2023/01/28 01:38:17;;;;;;;;;;;;;;;4.97;72.62;102988.56;4970341;28;19944;-53
2023/01/28 01:40:42;;;;;;;;;;;;;;;5.01;72.49;102995.72;4972342;28;19929;-51
2023/01/28 01:43:17;;;;;;;;;;;;;;;5.03;72.73;102995.06;4976917;28;19922;-53
2023/01/28 01:45:45;;;;;;;;;;;;;;;5.07;72.59;102997.13;4971206;28;20567;-49
2023/01/28 01:48:18;;;;;;;;;;;;;;;5.07;72.05;102996.25;4997161;28;19924;-52
2023/01/28 01:50:49;;;;;;;;;;;;;;;5.05;72.19;102996.13;4988785;28;20009;-50
2023/01/28 01:53:17;;;;;;;;;;;;;;;5.04;72.52;103002.00;4985214;28;19922;-51
2023/01/28 01:55:45;;;;;;;;;;;;;;;5.05;72.59;103002.88;4978966;28;19995;-51
2023/01/28 01:58:13;;;;;;;;;;;;;;;5.04;72.67;102986.69;4986435;28;19920;-51
2023/01/28 02:00:39;;;;;;;;;;;;;;;5.07;72.09;102993.69;4976415;28;20028;-51
2023/01/28 02:03:04;;;;;;;;;;;;;;;5.05;72.37;102998.66;4999529;28;20294;-52
2023/01/28 02:05:29;;;;;;;;;;;;;;;5.04;72.07;102998.56;4988755;28;19929;-51
2023/01/28 02:08:19;;;;;;;;;;;;;;;5.03;72.17;102997.63;4995701;28;20389;-52
2023/01/28 02:10:43;;;;;;;;;;;;;;;5.03;72.26;102997.63;4978791;28;19924;-50
2023/01/28 02:13:08;;;;;;;;;;;;;;;5.03;72.34;102999.28;5008477;28;19976;-52
2023/01/28 02:15:34;;;;;;;;;;;;;;;5.03;72.23;103005.28;4970631;28;19918;-48
2023/01/28 02:17:59;;;;;;;;;;;;;;;5.04;71.96;103007.09;4969527;28;19967;-52
2023/01/28 02:20:28;;;;;;;;;;;;;;;5.04;71.76;103002.00;4982981;28;20044;-46
2023/01/28 02:23:04;;;;;;;;;;;;;;;5.05;71.27;103000.34;4969674;28;19918;-51
2023/01/28 02:25:38;;;;;;;;;;;;;;;5.03;71.35;103004.38;4971961;28;20456;-52
2023/01/28 02:28:20;;;;;;;;;;;;;;;5.03;70.97;102997.63;4969385;28;19995;-53
2023/01/28 02:30:48;;;;;;;;;;;;;;;5.01;70.81;103006.81;4966037;28;19939;-47
2023/01/28 02:33:38;;;;;;;;;;;;;;;5.00;70.16;103006.69;4967294;28;20235;-49
2023/01/28 02:36:26;;;;;;;;;;;;;;;4.93;68.66;102999.28;4974508;28;19921;-50
2023/01/28 02:38:52;;;;;;;;;;;;;;;4.78;66.82;102997.22;4978456;28;20443;-51
2023/01/28 02:41:28;;;;;;;;;;;;;;;4.72;68.79;103001.78;4969522;28;19928;-51
2023/01/28 02:43:53;;;;;;;;;;;;;;;4.72;69.19;103001.78;4975386;28;20410;-49
2023/01/28 02:49:20;;;;;;;;;;;;;;;4.77;70.29;102997.97;4974329;28;19928;-53
2023/01/28 02:51:54;;;;;;;;;;;;;;;4.83;70.11;102998.50;4971261;28;19916;-51
2023/01/28 02:54:27;;;;;;;;;;;;;;;4.84;69.41;103004.50;4980001;28;20418;-51
2023/01/28 02:56:55;;;;;;;;;;;;;;;4.81;69.36;103001.69;4968497;28;19961;-46
2023/01/28 02:59:30;;;;;;;;;;;;;;;4.83;69.82;103008.69;4972375;28;19918;-50
2023/01/28 03:02:01;;;;;;;;;;;;;;;4.86;70.04;103004.66;4963079;28;19927;-48
2023/01/28 03:04:36;;;;;;;;;;;;;;;4.87;69.57;103001.31;4969089;28;20382;-52
2023/01/28 03:07:05;;;;;;;;;;;;;;;4.88;70.05;103010.75;4967865;28;19925;-52
2023/01/28 03:09:30;;;;;;;;;;;;;;;4.88;70.30;103009.09;4969395;28;20009;-51
2023/01/28 03:36:58;;;;;;;;;;;;;;;4.84;72.25;103012.13;4971030;28;19984;-51
2023/01/28 03:39:27;;;;;;;;;;;;;;;4.80;71.86;103015.22;4991462;28;19954;-51
2023/01/28 03:41:56;;;;;;;;;;;;;;;4.75;72.02;103012.25;4972088;28;19924;-51
2023/01/28 03:47:07;;;;;;;;;;;;;;;4.76;72.16;103003.84;4987995;28;20416;-50
2023/01/28 03:49:33;;;;;;;;;;;;;;;4.78;72.44;103002.31;4973339;28;19976;-49
2023/01/28 03:51:58;;;;;;;;;;;;;;;4.79;72.25;103009.22;4973784;28;20011;-52
2023/01/28 03:54:23;;;;;;;;;;;;;;;4.80;72.27;103011.00;4969418;28;19926;-49
2023/01/28 03:56:48;;;;;;;;;;;;;;;4.78;72.18;103021.81;4977991;28;20521;-52
2023/01/28 03:59:14;;;;;;;;;;;;;;;4.77;72.44;103015.81;4966576;28;20275;-52
2023/01/28 04:01:39;;;;;;;;;;;;;;;4.76;72.48;103024.22;4971171;28;21003;-46
2023/01/28 04:04:04;;;;;;;;;;;;;;;4.78;72.40;103032.88;4973713;28;19934;-52
2023/01/28 04:06:29;;;;;;;;;;;;;;;4.78;72.48;103029.44;4964023;28;19932;-51
2023/01/28 04:08:58;;;;;;;;;;;;;;;4.77;72.70;103027.66;4967032;28;19930;-51
2023/01/28 04:11:24;;;;;;;;;;;;;;;4.78;72.40;103038.00;4972231;28;20017;-53
2023/01/28 04:13:50;;;;;;;;;;;;;;;4.77;72.40;103036.22;4966313;28;19980;-49
2023/01/28 04:16:16;;;;;;;;;;;;;;;4.76;72.39;103031.88;4968013;28;19941;-52
2023/01/28 04:18:42;;;;;;;;;;;;;;;4.74;72.45;103040.16;4966291;28;21317;-51
2023/01/28 04:21:07;;;;;;;;;;;;;;;4.75;72.70;103039.41;4983287;28;20370;-51
2023/01/28 04:23:33;;;;;;;;;;;;;;;4.75;72.32;103037.75;4970164;28;19922;-46
2023/01/28 04:25:58;;;;;;;;;;;;;;;4.73;71.88;103035.81;4968652;28;19926;-51
2023/01/28 04:28:24;;;;;;;;;;;;;;;4.71;72.13;103037.34;4970563;28;19928;-51
2023/01/28 04:30:50;;;;;;;;;;;;;;;4.67;72.40;103028.56;4970847;28;19930;-50
2023/01/28 04:33:16;;;;;;;;;;;;;;;4.68;72.52;103030.34;4977869;28;19952;-44
2023/01/28 04:35:41;;;;;;;;;;;;;;;4.70;72.74;103027.91;4975181;28;19977;-51
2023/01/28 04:38:07;;;;;;;;;;;;;;;4.70;72.60;103018.59;4969247;28;19948;-46
2023/01/28 04:40:32;;;;;;;;;;;;;;;4.72;72.61;103026.38;4973794;28;20363;-51
2023/01/28 04:42:57;;;;;;;;;;;;;;;4.71;72.54;103028.03;4984716;28;19982;-52
2023/01/28 04:45:23;;;;;;;;;;;;;;;4.72;72.67;103029.81;4967396;28;19926;-52
2023/01/28 04:47:48;;;;;;;;;;;;;;;4.73;72.29;103030.72;4971701;28;20048;-46
2023/01/28 04:50:14;;;;;;;;;;;;;;;4.72;72.47;103034.91;4973119;28;20429;-52
2023/01/28 04:52:39;;;;;;;;;;;;;;;4.71;71.94;103033.13;4970000;28;19954;-50
2023/01/28 04:55:05;;;;;;;;;;;;;;;4.66;71.78;103036.94;4975977;28;19968;-52
2023/01/28 04:57:30;;;;;;;;;;;;;;;4.65;71.97;103035.16;4974962;28;19942;-51
2023/01/28 04:59:56;;;;;;;;;;;;;;;4.65;72.10;103035.16;4966198;28;20000;-50
2023/01/28 05:02:21;;;;;;;;;;;;;;;4.66;72.09;103042.03;4972709;28;19926;-49
2023/01/28 05:04:46;;;;;;;;;;;;;;;4.66;72.12;103039.47;4978086;28;19977;-45
2023/01/28 05:07:11;;;;;;;;;;;;;;;4.66;71.78;103042.03;4989097;28;19924;-52
2023/01/28 05:09:37;;;;;;;;;;;;;;;4.68;71.59;103034.53;4999273;28;19926;-52
2023/01/28 05:12:02;;;;;;;;;;;;;;;4.64;71.84;103038.47;5008652;28;20011;-51
2023/01/28 05:14:27;;;;;;;;;;;;;;;4.65;71.88;103044.44;4980293;28;19924;-52
2023/01/28 05:16:53;;;;;;;;;;;;;;;4.66;71.63;103056.44;5007771;28;19921;-53
2023/01/28 05:19:18;;;;;;;;;;;;;;;4.65;71.62;103058.09;4999725;28;20358;-46
2023/01/28 05:21:43;;;;;;;;;;;;;;;4.61;69.82;103050.97;5004298;28;19927;-50
2023/01/28 05:24:09;;;;;;;;;;;;;;;4.55;67.79;103052.94;5003039;28;20418;-51
2023/01/28 05:26:34;;;;;;;;;;;;;;;4.53;68.22;103044.28;4998745;28;20298;-51
2023/01/28 05:28:59;;;;;;;;;;;;;;;4.50;69.45;103038.94;4988681;28;19953;-51
2023/01/28 05:31:24;;;;;;;;;;;;;;;4.50;69.14;103039.81;5003364;28;19977;-47
2023/01/28 05:33:51;;;;;;;;;;;;;;;4.51;69.30;103040.72;4998730;28;20017;-52
2023/01/28 05:36:17;;;;;;;;;;;;;;;4.51;68.90;103035.63;4996250;28;20331;-47
2023/01/28 05:38:42;;;;;;;;;;;;;;;4.52;69.06;103037.41;4979490;28;19965;-52
2023/01/28 05:41:07;;;;;;;;;;;;;;;4.52;69.02;103030.66;4976852;28;19928;-52
2023/01/28 05:43:32;;;;;;;;;;;;;;;4.56;68.94;103034.38;4981240;28;19941;-52
2023/01/28 05:45:57;;;;;;;;;;;;;;;4.58;69.07;103022.66;4978276;28;20018;-50
2023/01/28 05:48:23;;;;;;;;;;;;;;;4.59;68.85;103029.53;4974737;28;20398;-51
2023/01/28 05:50:48;;;;;;;;;;;;;;;4.59;69.18;103034.63;4972186;28;20290;-52
2023/01/28 05:53:14;;;;;;;;;;;;;;;4.60;69.17;103035.50;4971372;28;19922;-52
2023/01/28 05:55:39;;;;;;;;;;;;;;;4.62;69.35;103040.00;4975838;28;19922;-52
2023/01/28 05:58:04;;;;;;;;;;;;;;;4.64;69.34;103042.66;4986425;28;19991;-50
2023/01/28 06:00:29;;;;;;;;;;;;;;;4.63;68.24;103046.88;4973372;28;19922;-48
2023/01/28 06:02:55;;;;;;;;;;;;;;;4.61;68.64;103039.84;4969612;28;19918;-51
2023/01/28 06:05:20;;;;;;;;;;;;;;;4.58;68.43;103045.56;4981898;28;19928;-52
2023/01/28 06:07:46;;;;;;;;;;;;;;;4.60;68.99;103049.16;4967213;28;20410;-52
2023/01/28 06:10:11;;;;;;;;;;;;;;;4.60;68.54;103044.03;4971184;28;19931;-48
2023/01/28 06:12:37;;;;;;;;;;;;;;;4.57;67.74;103044.69;4968615;28;19922;-51
2023/01/28 06:15:02;;;;;;;;;;;;;;;4.56;68.61;103058.19;4971070;28;19922;-52
2023/01/28 06:17:27;;;;;;;;;;;;;;;4.55;68.21;103040.19;4969605;28;19925;-51
2023/01/28 06:19:53;;;;;;;;;;;;;;;4.54;68.38;103049.50;4967094;28;19983;-50
2023/01/28 06:22:18;;;;;;;;;;;;;;;4.54;68.33;103053.72;4977008;28;19933;-51
2023/01/28 06:24:43;;;;;;;;;;;;;;;4.51;68.24;103051.81;4970086;28;19922;-48
2023/01/28 06:27:08;;;;;;;;;;;;;;;4.52;68.02;103047.59;4967383;28;19957;-50
2023/01/28 06:29:34;;;;;;;;;;;;;;;4.51;66.87;103049.25;4972021;28;19929;-52
2023/01/28 06:31:59;;;;;;;;;;;;;;;4.47;65.94;103048.84;4978610;28;20035;-52
2023/01/28 06:34:24;;;;;;;;;;;;;;;4.41;66.27;103055.94;4968510;28;19974;-51
2023/01/28 06:36:52;;;;;;;;;;;;;;;4.39;67.24;103052.38;4970118;28;19968;-52
2023/01/28 06:39:17;;;;;;;;;;;;;;;4.37;67.02;103051.34;4966599;28;19926;-51
2023/01/28 06:41:42;;;;;;;;;;;;;;;4.38;66.84;103048.94;4979675;28;19944;-51
2023/01/28 06:44:07;;;;;;;;;;;;;;;4.38;67.20;103060.78;4969175;28;19928;-52
2023/01/28 06:46:33;;;;;;;;;;;;;;;4.40;67.02;103070.34;4975283;28;20035;-47
2023/01/28 06:48:58;;;;;;;;;;;;;;;4.43;67.51;103064.59;4969932;28;20053;-51
2023/01/28 06:51:23;;;;;;;;;;;;;;;4.43;67.34;103057.88;4971936;28;19973;-45
2023/01/28 06:53:49;;;;;;;;;;;;;;;4.44;67.25;103059.66;4970772;28;20689;-52
2023/01/28 06:56:14;;;;;;;;;;;;;;;4.44;67.81;103058.78;4971873;28;19926;-49
2023/01/28 06:58:39;;;;;;;;;;;;;;;4.43;67.74;103062.06;4971196;28;19996;-46
2023/01/28 07:01:07;;;;;;;;;;;;;;;4.43;67.35;103059.50;4971423;28;20601;-52
2023/01/28 07:03:32;;;;;;;;;;;;;;;4.44;67.78;103067.31;4974204;28;20390;-45
2023/01/28 07:05:57;;;;;;;;;;;;;;;4.44;67.50;103071.53;4992452;28;19963;-48
2023/01/28 07:08:23;;;;;;;;;;;;;;;4.42;67.52;103061.16;5002036;28;19931;-46
2023/01/28 07:10:48;;;;;;;;;;;;;;;4.41;67.48;103064.47;4992661;28;19935;-49
2023/01/28 07:13:13;;;;;;;;;;;;;;;4.40;66.37;103077.09;4988678;28;19926;-51
2023/01/28 07:15:39;;;;;;;;;;;;;;;4.38;67.10;103082.06;4999032;28;21751;-52
2023/01/28 07:18:04;;;;;;;;;;;;;;;4.38;66.36;103078.63;4996976;28;19926;-51
2023/01/28 07:20:29;;;;;;;;;;;;;;;4.37;66.69;103079.34;4999996;28;19920;-52
2023/01/28 07:22:55;;;;;;;;;;;;;;;4.37;66.41;103087.00;5009860;28;19921;-51
2023/01/28 07:25:20;;;;;;;;;;;;;;;4.36;66.66;103088.66;4997312;28;19922;-50
2023/01/28 07:27:46;;;;;;;;;;;;;;;4.34;66.29;103102.03;4981726;28;19933;-49
2023/01/28 07:30:12;;;;;;;;;;;;;;;4.33;66.84;103093.50;4990036;28;19926;-48
2023/01/28 07:32:37;;;;;;;;;;;;;;;4.35;66.71;103103.81;4992555;28;20020;-48
2023/01/28 07:35:02;;;;;;;;;;;;;;;4.36;66.47;103100.50;4993835;28;19922;-53
2023/01/28 07:37:28;;;;;;;;;;;;;;;4.36;66.85;103108.13;4965501;28;19922;-51
2023/01/28 07:39:53;;;;;;;;;;;;;;;4.37;67.00;103107.38;4969569;28;19921;-52
2023/01/28 07:42:18;;;;;;;;;;;;;;;4.38;67.17;103110.06;4977952;28;19926;-52
2023/01/28 07:44:43;;;;;;;;;;;;;;;4.38;67.11;103109.19;4972429;28;20352;-47
2023/01/28 07:47:09;;;;;;;;;;;;;;;4.35;66.24;103108.91;4965150;28;19995;-51
2023/01/28 07:49:34;;;;;;;;;;;;;;;4.33;66.05;103111.31;4983516;28;20031;-51
2023/01/28 07:51:59;;;;;;;;;;;;;;;4.34;66.15;103105.47;4975503;28;19930;-52
2023/01/28 07:54:24;;;;;;;;;;;;;;;4.30;64.99;103117.00;4975245;28;20430;-52
2023/01/28 07:56:50;;;;;;;;;;;;;;;4.26;65.27;103112.44;4964932;28;19931;-52
2023/01/28 07:59:15;;;;;;;;;;;;;;;4.25;66.27;103105.56;4976558;28;19926;-50
2023/01/28 08:01:40;;;;;;;;;;;;;;;4.27;66.65;103103.13;4979592;28;19971;-52
2023/01/28 08:04:05;;;;;;;;;;;;;;;4.27;66.13;103106.56;4972093;28;19924;-51
2023/01/28 08:06:36;;;;;;;;;;;;;;;4.25;66.09;103108.09;4969938;28;20279;-53
2023/01/28 08:09:04;;;;;;;;;;;;;;;4.26;66.45;103111.53;4978966;28;19928;-51
2023/01/28 08:11:29;;;;;;;;;;;;;;;4.27;66.53;103111.66;4969258;28;20290;-52
2023/01/28 08:13:54;;;;;;;;;;;;;;;4.29;66.81;103127.97;4964502;28;19935;-53
2023/01/28 08:16:19;;;;;;;;;;;;;;;4.32;66.66;103131.56;4989097;28;19918;-51
2023/01/28 08:18:45;;;;;;;;;;;;;;;4.31;66.63;103128.13;4986565;28;19922;-46
2023/01/28 08:21:10;;;;;;;;;;;;;;;4.29;65.20;103145.78;4972837;28;19931;-48
2023/01/28 08:23:35;;;;;;;;;;;;;;;4.25;66.24;103150.50;4966845;28;19937;-50
2023/01/28 08:26:00;;;;;;;;;;;;;;;4.22;64.99;103137.47;4977896;28;19924;-51
2023/01/28 08:28:26;;;;;;;;;;;;;;;4.18;65.41;103140.50;4967324;28;19960;-50
2023/01/28 08:30:51;;;;;;;;;;;;;;;4.18;66.32;103154.13;4978970;28;19930;-52
2023/01/28 08:33:17;;;;;;;;;;;;;;;4.20;66.65;103152.63;4969537;28;19937;-49
2023/01/28 08:35:43;;;;;;;;;;;;;;;4.24;67.28;103149.56;4970388;28;21524;-52
2023/01/28 08:38:10;;;;;;;;;;;;;;;4.25;66.97;103153.94;4980233;28;19926;-51
2023/01/28 08:40:36;;;;;;;;;;;;;;;4.27;67.33;103152.41;4970535;28;20294;-52
2023/01/28 08:43:01;;;;;;;;;;;;;;;4.30;67.04;103157.75;4981906;28;19921;-51
2023/01/28 08:45:27;;;;;;;;;;;;;;;4.32;66.89;103155.38;4974797;28;19972;-49
2023/01/28 08:47:54;;;;;;;;;;;;;;;4.33;66.68;103152.06;4979198;28;19922;-52
2023/01/28 08:50:20;;;;;;;;;;;;;;;4.32;66.22;103151.94;4972315;28;19980;-52
2023/01/28 08:52:46;;;;;;;;;;;;;;;4.29;66.59;103161.06;4994523;28;19920;-52
2023/01/28 08:55:12;;;;;;;;;;;;;;;4.29;66.14;103167.81;4983396;28;19933;-52
2023/01/28 08:57:37;;;;;;;;;;;;;;;4.29;66.51;103168.72;4976080;28;19925;-52
2023/01/28 09:00:03;;;;;;;;;;;;;;;4.32;66.41;103164.69;4973627;28;19928;-52
2023/01/28 09:02:29;;;;;;;;;;;;;;;4.30;66.69;103164.50;4977218;28;19925;-52
2023/01/28 09:04:54;;;;;;;;;;;;;;;4.31;66.58;103158.69;5009505;28;19926;-48
2023/01/28 09:07:19;;;;;;;;;;;;;;;4.30;64.90;103156.88;4987002;28;19920;-51
2023/01/28 09:09:44;;;;;;;;;;;;;;;4.27;65.74;103174.44;4984868;28;20404;-52
2023/01/28 09:12:10;;;;;;;;;;;;;;;4.28;66.55;103183.88;4995749;28;19937;-51
2023/01/28 09:14:35;;;;;;;;;;;;;;;4.27;66.13;103182.97;4976316;28;20302;-51
2023/01/28 09:17:00;;;;;;;;;;;;;;;4.26;66.02;103188.81;5005351;28;19914;-48
2023/01/28 09:19:26;;;;;;;;;;;;;;;4.27;66.09;103188.06;4972429;28;19922;-52
2023/01/28 09:21:51;;;;;;;;;;;;;;;4.28;66.06;103183.88;4981716;28;19965;-52
2023/01/28 09:24:17;;;;;;;;;;;;;;;4.27;65.32;103184.63;4971651;28;19960;-53
2023/01/28 09:26:44;;;;;;;;;;;;;;;4.25;66.13;103193.78;4973356;28;19956;-52
2023/01/28 09:29:09;;;;;;;;;;;;;;;4.26;66.24;103199.00;4973422;28;19984;-46
2023/01/28 09:31:34;;;;;;;;;;;;;;;4.32;66.57;103203.78;4975496;28;20322;-50
2023/01/28 09:33:59;;;;;;;;;;;;;;;4.38;65.16;103211.06;5018825;28;20379;-50
2023/01/28 09:36:25;;;;;;;;;;;;;;;4.40;65.55;103209.56;4976385;28;19928;-52
2023/01/28 09:38:50;;;;;;;;;;;;;;;4.43;65.33;103209.81;4977991;28;20022;-52
2023/01/28 09:41:42;;;;;;;;;;;;;;;4.47;65.65;103209.34;4979670;28;19926;-49
2023/01/28 09:44:13;;;;;;;;;;;;;;;4.49;64.74;103216.38;4974073;28;19933;-47
2023/01/28 09:46:41;;;;;;;;;;;;;;;4.51;64.87;103213.97;4970614;28;19925;-47
2023/01/28 09:49:22;;;;;;;;;;;;;;;4.51;63.41;103211.41;4977441;28;20340;-51
2023/01/28 09:51:56;;;;;;;;;;;;;;;4.48;65.20;103213.69;4976200;28;20353;-54
2023/01/28 09:54:25;;;;;;;;;;;;;;;4.48;65.20;103204.38;4968152;28;19925;-47
2023/01/28 09:56:53;;;;;;;;;;;;;;;4.47;64.41;103214.44;4973379;28;19925;-49
2023/01/28 09:59:20;;;;;;;;;;;;;;;4.44;64.81;103216.72;4979670;28;20870;-50
2023/01/28 10:01:49;;;;;;;;;;;;;;;4.40;64.96;103209.56;4979787;28;19983;-47
2023/01/28 10:04:15;;;;;;;;;;;;;;;4.39;65.22;103234.13;4974537;28;20474;-51
2023/01/28 10:06:40;;;;;;;;;;;;;;;4.38;64.07;103236.56;4978478;28;20375;-51
2023/01/28 10:09:05;;;;;;;;;;;;;;;4.33;63.85;103225.94;4990789;28;20007;-51
2023/01/28 10:11:57;;;;;;;;;;;;;;;4.29;64.33;103240.03;4974560;28;19918;-50
2023/01/28 10:14:31;;;;;;;;;;;;;;;4.29;65.51;103234.94;4999049;28;20412;-49
2023/01/28 10:17:06;;;;;;;;;;;;;;;4.31;65.31;103240.19;4973352;28;20009;-51
2023/01/28 10:19:35;;;;;;;;;;;;;;;4.29;65.02;103242.56;4971647;28;19977;-44
2023/01/28 10:22:03;;;;;;;;;;;;;;;4.28;64.98;103234.81;4969141;28;20006;-48
2023/01/28 10:24:30;;;;;;;;;;;;;;;4.24;64.10;103246.34;4976877;28;19921;-48
2023/01/28 10:26:56;;;;;;;;;;;;;;;4.18;64.17;103243.25;4971220;28;19932;-50
2023/01/28 10:29:26;;;;;;;;;;;;;;;4.16;64.59;103233.69;4967628;28;19930;-52
2023/01/28 10:31:59;;;;;;;;;;;;;;;4.17;65.09;103228.72;4974906;28;20369;-50
2023/01/28 10:34:24;;;;;;;;;;;;;;;4.17;64.54;103232.94;4977366;28;19974;-52
2023/01/28 10:36:50;;;;;;;;;;;;;;;4.18;65.30;103238.16;4986396;28;19928;-47
2023/01/28 10:39:17;;;;;;;;;;;;;;;4.23;65.92;103230.94;4984674;28;19924;-51
2023/01/28 10:41:42;;;;;;;;;;;;;;;4.19;64.81;103214.50;4976209;28;20422;-52
2023/01/28 10:44:37;;;;;;;;;;;;;;;4.14;64.96;103215.72;4981741;28;19932;-48
2023/01/28 10:47:09;;;;;;;;;;;;;;;4.14;65.95;103220.81;4961010;28;19968;-50
2023/01/28 10:49:38;;;;;;;;;;;;;;;4.16;65.64;103216.75;4968691;28;20298;-49
2023/01/28 10:52:14;;;;;;;;;;;;;;;4.15;65.55;103222.59;4966215;28;19918;-52
2023/01/28 10:54:39;;;;;;;;;;;;;;;4.15;65.99;103217.50;4976000;28;19922;-55
2023/01/28 10:57:09;;;;;;;;;;;;;;;4.18;66.21;103215.22;4966651;28;20536;-52
2023/01/28 10:59:35;;;;;;;;;;;;;;;4.22;66.50;103224.06;4967397;28;19921;-46
2023/01/28 11:02:19;;;;;;;;;;;;;;;4.25;66.29;103220.16;4968902;28;19934;-46
2023/01/28 11:04:45;;;;;;;;;;;;;;;4.28;66.09;103222.06;4967580;28;19918;-52
2023/01/28 11:07:18;;;;;;;;;;;;;;;4.30;66.24;103216.34;4975472;28;19948;-44
2023/01/28 11:09:44;;;;;;;;;;;;;;;4.30;64.71;103197.63;4969954;28;19922;-53
2023/01/28 11:12:18;;;;;;;;;;;;;;;4.31;64.68;103199.44;4969210;28;19918;-49
2023/01/28 11:14:50;;;;;;;;;;;;;;;4.27;63.57;103208.44;4970383;28;19917;-51
2023/01/28 11:17:17;;;;;;;;;;;;;;;4.22;64.38;103194.38;4968297;28;19925;-48
2023/01/28 11:19:42;;;;;;;;;;;;;;;4.17;62.74;103207.47;4971689;28;20033;-51
2023/01/28 11:22:18;;;;;;;;;;;;;;;4.14;64.35;103189.38;4963810;28;20022;-50
2023/01/28 11:24:44;;;;;;;;;;;;;;;4.12;64.76;103186.66;4973148;28;19922;-51
2023/01/28 11:27:14;;;;;;;;;;;;;;;4.14;64.19;103190.25;4970458;28;19929;-50
2023/01/28 11:29:40;;;;;;;;;;;;;;;4.14;64.39;103185.16;4970898;28;19936;-45
2023/01/28 11:32:15;;;;;;;;;;;;;;;4.17;64.90;103175.25;4968822;28;20466;-51
2023/01/28 11:34:47;;;;;;;;;;;;;;;4.19;64.51;103173.75;4979159;28;20394;-51
2023/01/28 11:37:15;;;;;;;;;;;;;;;4.21;64.30;103176.44;4970726;28;20257;-47
2023/01/28 11:39:40;;;;;;;;;;;;;;;4.27;64.97;103170.25;4970427;28;20444;-51
2023/01/28 11:42:18;;;;;;;;;;;;;;;4.34;65.32;103165.69;4970229;28;20030;-50
2023/01/28 11:44:45;;;;;;;;;;;;;;;4.36;63.66;103164.16;4976524;28;19929;-51
2023/01/28 11:47:13;;;;;;;;;;;;;;;4.38;64.04;103147.41;4977677;28;19926;-47
2023/01/28 11:49:44;;;;;;;;;;;;;;;4.41;63.68;103137.47;4972470;28;19920;-52
2023/01/28 11:52:18;;;;;;;;;;;;;;;4.47;64.30;103128.72;4969958;28;19945;-51
2023/01/28 11:54:55;;;;;;;;;;;;;;;4.56;63.85;103113.34;4969680;28;20366;-52
2023/01/28 11:57:40;;;;;;;;;;;;;;;4.63;64.17;103090.19;4968915;28;20387;-50
2023/01/28 12:00:11;;;;;;;;;;;;;;;4.72;63.28;103090.09;4969778;28;20333;-51
2023/01/28 12:02:47;;;;;;;;;;;;;;;4.80;63.64;103081.47;4970568;28;19925;-51
2023/01/28 12:05:20;;;;;;;;;;;;;;;4.90;63.68;103086.59;4976213;28;20363;-51
2023/01/28 12:07:46;;;;;;;;;;;;;;;5.00;62.91;103090.84;4973092;28;19926;-50
2023/01/28 12:10:15;;;;;;;;;;;;;;;5.08;63.24;103084.72;4975485;28;19918;-52
2023/01/28 12:13:00;;;;;;;;;;;;;;;5.08;61.07;103064.31;4978910;28;19930;-51
2023/01/28 12:15:29;;;;;;;;;;;;;;;4.98;59.83;103071.97;4968020;28;19922;-51
2023/01/28 12:18:03;;;;;;;;;;;;;;;4.97;62.26;103075.25;4970176;28;19965;-51
2023/01/28 12:20:47;;;;;;;;;;;;;;;5.05;62.58;103084.47;4969489;28;19924;-52
2023/01/28 12:23:18;;;;;;;;;;;;;;;5.14;62.02;103090.34;4975795;28;19969;-47
2023/01/28 12:25:45;;;;;;;;;;;;;;;5.23;62.04;103082.59;4967512;28;19925;-50
2023/01/28 12:28:10;;;;;;;;;;;;;;;5.29;60.78;103101.88;4981382;28;20378;-51
2023/01/28 12:30:47;;;;;;;;;;;;;;;5.34;59.95;103113.38;4970043;28;19918;-51
2023/01/28 12:33:39;;;;;;;;;;;;;;;5.31;60.59;103115.63;4972844;28;20429;-48
2023/01/28 12:36:15;;;;;;;;;;;;;;;5.26;60.99;103122.00;4968958;28;19933;-51
2023/01/28 12:38:49;;;;;;;;;;;;;;;5.25;61.76;103117.66;4968913;28;19922;-51
2023/01/28 12:41:19;;;;;;;;;;;;;;;5.15;59.35;103121.84;4983796;28;19918;-53
2023/01/28 12:43:48;;;;;;;;;;;;;;;5.04;60.24;103120.94;4969150;28;19961;-51
2023/01/28 12:46:32;;;;;;;;;;;;;;;4.97;60.93;103122.03;4974402;28;20068;-49
2023/01/28 12:48:57;;;;;;;;;;;;;;;4.92;60.45;103125.00;4973365;28;21079;-51
2023/01/28 12:51:42;;;;;;;;;;;;;;;4.89;61.54;103124.69;4982390;28;19920;-51
2023/01/28 12:54:26;;;;;;;;;;;;;;;4.93;62.29;103119.13;4957958;28;20001;-51
2023/01/28 12:56:53;;;;;;;;;;;;;;;4.88;61.08;103118.72;4971008;28;20072;-52
2023/01/28 12:59:21;;;;;;;;;;;;;;;4.82;61.89;103121.63;4968159;28;20448;-48
2023/01/28 13:01:50;;;;;;;;;;;;;;;4.86;62.11;103122.78;4980835;28;19926;-51
2023/01/28 13:04:28;;;;;;;;;;;;;;;4.88;61.63;103116.16;4975088;28;20005;-51
2023/01/28 13:07:03;;;;;;;;;;;;;;;4.87;60.20;103131.34;4978334;28;20287;-49
2023/01/28 13:09:28;;;;;;;;;;;;;;;4.86;61.90;103130.44;4966633;28;19966;-51
2023/01/28 13:11:57;;;;;;;;;;;;;;;4.86;61.42;103127.00;4978563;28;19964;-52
2023/01/28 13:14:27;;;;;;;;;;;;;;;4.85;61.65;103120.97;4964508;28;20016;-48
2023/01/28 13:16:52;;;;;;;;;;;;;;;4.89;62.00;103110.31;4969201;28;19991;-48
2023/01/28 13:19:17;;;;;;;;;;;;;;;4.94;61.94;103108.16;4970304;28;19922;-49
2023/01/28 13:21:43;;;;;;;;;;;;;;;4.96;60.08;103114.28;4981202;28;19922;-50